WSSS Airport Information

Runway Information
Runway 02C Length 13123 ft width 197 ft
Elevation 15 ft Threshold ft Heading 23
Runway 20C Length 13123 ft Width 197 ft
Elevation 15 ft Threshold ft Heading 203
Runway 02R Length 13123 ft width 197 ft
Elevation 16 ft Threshold ft Heading 23
Runway 20L Length 13123 ft Width 197 ft
Elevation 15 ft Threshold ft Heading 203
Runway 02L Length 13123 ft width 197 ft
Elevation 22 ft Threshold ft Heading 23
Runway 20R Length 13123 ft Width 197 ft
Elevation 14 ft Threshold 2429 ft Heading 203
Airport Frequencies
Type A/D Name APP/DEP Frequency 120.3 MHZ
Type ARR Name ARR Frequency 119.3 MHZ
Type ATIS Name ATIS Frequency 128.6 MHZ
Type CLD Name CLNC DEL Frequency 121.65 MHZ
Type GND Name GND Frequency 124.3 MHZ
Type TWR Name TWR Frequency 118.6 MHZ
Airport Navaids
Type NDB Name Bedok Frequency 232 KHZ
Type VOR-DME Name Tekong Frequency 116500 KHZ
Airport Weather Information & NOTAM
ADDS - METARS form results

(1920 UTC 06 February 2023)
Data provider http://aviationweather.gov/metar/data/
 
METAR text: WSSS 061900Z 35002KT 9999 FEW018 BKN140 24/23 Q1009 NOSIG
Conditions at: WSSS (SINGAPORE/CHANGI, SG) observed 1900 UTC 06 February 2023
Temperature: 24.0°C (75°F)
Dewpoint: 23.0°C (73°F) [RH = 94%]
Pressure (altimeter): 29.79 inches Hg (1009.0 mb)
Winds: from the N (350 degrees) at 2 MPH (2 knots; 1.0 m/s)
Visibility: 6 or more miles (10+ km)
Ceiling: 14000 feet AGL
Clouds: few clouds at 1800 feet AGL
broken clouds at 14000 feet AGL
Weather: no significant weather observed at this time

METAR text: WSSS 061830Z 33003KT 9999 FEW018 BKN150 25/23 Q1009 NOSIG
Conditions at: WSSS (SINGAPORE/CHANGI, SG) observed 1830 UTC 06 February 2023
Temperature: 25.0°C (77°F)
Dewpoint: 23.0°C (73°F) [RH = 89%]
Pressure (altimeter): 29.79 inches Hg (1009.0 mb)
Winds: from the NNW (330 degrees) at 3 MPH (3 knots; 1.5 m/s)
Visibility: 6 or more miles (10+ km)
Ceiling: 15000 feet AGL
Clouds: few clouds at 1800 feet AGL
broken clouds at 15000 feet AGL
Weather: no significant weather observed at this time

Forecast for: WSSS (SINGAPORE/CHANGI, SG)
Text: TAF WSSS 061700Z 0618/0800 34008KT 9999 FEW015 BKN030
Forecast period: 1800 UTC 06 February 2023 to 0000 UTC 08 February 2023
Forecast type: FROM: standard forecast or significant change
Winds: from the NNW (340 degrees) at 9 MPH (8 knots; 4.1 m/s)
Visibility: 6 or more miles (10+ km)
Ceiling: 3000 feet AGL
Clouds: few clouds at 1500 feet AGL
broken clouds at 3000 feet AGL
Weather: no significant weather forecast for this period
Text: TEMPO 0707/0710 4000 SHRA FEW012CB BKN015
Forecast period: 0700 to 1000 UTC 07 February 2023
Forecast type: TEMPORARY: The following changes expected for less than half the time period
Visibility: 2.49 miles (4.01 km)
Ceiling: 1500 feet AGL
Clouds: few clouds at 1200 feet AGL
broken clouds at 1500 feet AGL
Weather: SHRA  (rain showers)